createdAt,value
2023-01-07T00:04:30.681Z,5.87
2023-01-07T00:09:34.793Z,4.07
2023-01-07T00:14:36.744Z,5.17
2023-01-07T00:19:38.648Z,4.43
2023-01-07T00:24:40.565Z,6.13
2023-01-07T00:29:42.475Z,6.70
2023-01-07T00:34:44.246Z,5.37
2023-01-07T00:39:46.096Z,6.90
2023-01-07T00:44:47.874Z,7.17
2023-01-07T00:49:49.696Z,6.83
2023-01-07T00:54:51.685Z,6.37
2023-01-07T00:59:53.608Z,5.17
2023-01-07T01:04:55.430Z,5.77
2023-01-07T01:09:57.507Z,7.27
2023-01-07T01:14:59.550Z,7.27
2023-01-07T01:20:01.928Z,7.50
2023-01-07T01:25:04.116Z,3.57
2023-01-07T01:30:07.430Z,6.67
2023-01-07T01:35:12.491Z,6.87
2023-01-07T01:40:14.529Z,8.53
2023-01-07T01:45:16.749Z,5.23
2023-01-07T01:50:43.614Z,7.30
2023-01-07T01:56:10.978Z,8.00
2023-01-07T02:01:14.112Z,5.07
2023-01-07T02:12:36.681Z,4.23
2023-01-07T02:18:11.333Z,4.60
2023-01-07T02:23:31.874Z,5.00
2023-01-07T02:28:54.737Z,4.83
2023-01-07T02:34:28.152Z,3.43
2023-01-07T02:39:43.343Z,4.83
2023-01-07T02:45:00.312Z,4.67
2023-01-07T02:50:02.475Z,2.50
2023-01-07T02:55:13.507Z,4.10
2023-01-07T03:00:28.143Z,4.37
2023-01-07T03:05:36.273Z,2.77
2023-01-07T03:10:47.620Z,4.50
2023-01-07T03:16:11.961Z,6.60
2023-01-07T03:21:16.824Z,3.20
2023-01-07T03:26:25.287Z,4.43
2023-01-07T03:31:29.570Z,2.90
2023-01-07T03:36:42.672Z,2.47
2023-01-07T03:42:03.258Z,4.33
2023-01-07T03:47:07.339Z,2.73
2023-01-07T03:52:09.934Z,3.70
2023-01-07T03:57:12.132Z,2.67
2023-01-07T04:02:14.413Z,4.13
2023-01-07T04:07:16.733Z,2.37
2023-01-07T04:12:19.056Z,2.40
2023-01-07T04:17:21.159Z,2.27
2023-01-07T04:22:23.434Z,3.43
2023-01-07T04:27:25.268Z,3.43
2023-01-07T04:32:27.947Z,1.80
2023-01-07T04:37:29.988Z,1.77
2023-01-07T04:42:32.374Z,3.23
2023-01-07T04:47:34.264Z,1.30
2023-01-07T04:52:38.067Z,1.87
2023-01-07T04:57:41.120Z,1.73
2023-01-07T05:02:43.728Z,1.70
2023-01-07T05:07:47.246Z,1.90
2023-01-07T05:12:50.788Z,3.70
2023-01-07T05:17:54.082Z,1.07
2023-01-07T05:22:59.449Z,1.30
2023-01-07T05:28:01.670Z,1.53
2023-01-07T05:33:07.301Z,1.17
2023-01-07T05:38:10.603Z,2.70
2023-01-07T05:43:12.842Z,1.10
2023-01-07T05:48:15.399Z,1.83
2023-01-07T05:53:17.664Z,1.93
2023-01-07T05:58:19.587Z,3.63
2023-01-07T06:03:22.091Z,1.67
2023-01-07T06:08:24.128Z,1.33
2023-01-07T06:13:25.928Z,1.73
2023-01-07T06:18:27.803Z,2.43
2023-01-07T06:23:29.795Z,5.33
2023-01-07T06:28:31.555Z,0.97
2023-01-07T06:33:33.746Z,1.43
2023-01-07T06:38:36.009Z,2.50
2023-01-07T06:43:37.954Z,1.17
2023-01-07T06:48:39.945Z,1.00
2023-01-07T06:53:41.880Z,1.03
2023-01-07T06:58:43.841Z,1.70
2023-01-07T07:03:45.627Z,1.73
2023-01-07T07:08:47.569Z,2.43
2023-01-07T07:13:49.497Z,2.07
2023-01-07T07:18:53.065Z,3.77
2023-01-07T07:23:54.955Z,2.33
2023-01-07T07:28:56.717Z,2.50
2023-01-07T07:33:58.655Z,1.80
2023-01-07T07:39:00.658Z,1.30
2023-01-07T07:44:02.406Z,1.13
2023-01-07T07:49:05.895Z,1.03
2023-01-07T07:54:07.919Z,0.90
2023-01-07T07:59:10.035Z,0.80
2023-01-07T08:04:12.039Z,0.90
2023-01-07T08:09:14.007Z,1.17
2023-01-07T08:14:15.817Z,1.67
2023-01-07T08:19:18.992Z,1.20
2023-01-07T08:24:20.834Z,2.80
2023-01-07T08:29:24.124Z,0.90
2023-01-07T08:34:25.983Z,1.30
2023-01-07T08:39:27.989Z,3.23
2023-01-07T08:44:29.926Z,1.40
2023-01-07T08:49:31.839Z,0.70
2023-01-07T08:54:33.838Z,0.77
2023-01-07T08:59:35.639Z,1.47
2023-01-07T09:04:37.559Z,1.90
2023-01-07T09:09:39.604Z,1.47
2023-01-07T09:14:41.526Z,1.13
2023-01-07T09:19:43.469Z,1.57
2023-01-07T09:24:47.793Z,1.80
2023-01-07T09:29:49.991Z,1.33
2023-01-07T09:34:51.934Z,0.90
2023-01-07T09:39:53.947Z,0.80
2023-01-07T09:45:16.510Z,0.97
2023-01-07T09:50:44.191Z,1.40
2023-01-07T09:56:11.029Z,1.03
2023-01-07T10:01:23.672Z,1.17
2023-01-07T10:06:42.312Z,0.87
2023-01-07T10:12:30.195Z,1.63
2023-01-07T10:17:56.707Z,0.73
2023-01-07T10:23:12.711Z,1.00
2023-01-07T10:28:24.312Z,1.00
2023-01-07T10:33:29.722Z,1.07
2023-01-07T10:38:35.248Z,0.83
2023-01-07T10:43:59.835Z,1.77
2023-01-07T10:49:40.232Z,1.70
2023-01-07T10:55:00.618Z,1.20
2023-01-07T11:00:05.276Z,1.53
2023-01-07T11:05:10.722Z,1.23
2023-01-07T11:10:17.619Z,1.13
2023-01-07T11:15:24.168Z,1.23
2023-01-07T11:20:44.819Z,1.13
2023-01-07T11:25:46.962Z,1.50
2023-01-07T11:30:58.474Z,2.15
2023-01-07T11:36:00.822Z,2.25
2023-01-07T11:41:05.088Z,1.50
2023-01-07T11:46:21.460Z,1.20
2023-01-07T11:51:24.680Z,1.50
2023-01-07T11:56:29.539Z,2.17
2023-01-07T12:01:43.727Z,4.90
2023-01-07T12:06:47.463Z,1.40
2023-01-07T12:11:50.252Z,2.93
2023-01-07T12:16:53.700Z,2.15
2023-01-07T12:22:30.839Z,1.27
2023-01-07T12:27:57.846Z,3.42
2023-01-07T12:33:25.498Z,1.10
2023-01-07T12:38:43.447Z,2.72
2023-01-07T12:44:00.444Z,1.00
2023-01-07T12:49:02.334Z,2.70
2023-01-07T12:54:15.908Z,1.67
2023-01-07T12:59:46.719Z,1.67
2023-01-07T13:05:16.037Z,2.03
2023-01-07T13:10:24.687Z,1.45
2023-01-07T13:15:33.602Z,1.63
2023-01-07T13:20:55.569Z,1.65
2023-01-07T13:26:09.388Z,1.47
2023-01-07T13:31:43.607Z,2.72
2023-01-07T13:37:27.097Z,1.77
2023-01-07T13:42:35.142Z,1.73
2023-01-07T13:47:50.615Z,3.47
2023-01-07T13:53:02.233Z,1.67
2023-01-07T13:58:42.903Z,2.30
2023-01-07T14:03:58.453Z,1.80
2023-01-07T14:09:14.273Z,2.20
2023-01-07T14:14:29.754Z,2.37
2023-01-07T14:19:56.134Z,2.10
2023-01-07T14:25:26.153Z,1.33
2023-01-07T14:30:36.204Z,1.90
2023-01-07T14:35:41.352Z,1.50
2023-01-07T14:40:43.298Z,1.50
2023-01-07T14:45:45.028Z,2.10
2023-01-07T14:50:49.945Z,4.03
2023-01-07T14:56:01.498Z,2.17
2023-01-07T15:01:21.915Z,2.13
2023-01-07T15:06:39.257Z,2.57
2023-01-07T15:12:01.799Z,1.97
2023-01-07T15:17:04.117Z,2.10
2023-01-07T15:22:27.024Z,2.23
2023-01-07T15:27:50.334Z,2.17
2023-01-07T15:33:26.051Z,3.47
2023-01-07T15:38:31.548Z,2.83
2023-01-07T15:43:34.157Z,2.07
2023-01-07T15:48:36.101Z,2.13
2023-01-07T15:53:38.999Z,1.80
2023-01-07T15:58:48.731Z,3.37
2023-01-07T16:03:54.737Z,1.80
2023-01-07T16:08:57.795Z,2.00
2023-01-07T16:14:02.710Z,1.60
2023-01-07T16:19:05.593Z,1.70
2023-01-07T16:24:07.642Z,2.60
2023-01-07T16:29:18.499Z,3.50
2023-01-07T16:34:23.499Z,2.40
2023-01-07T16:39:38.649Z,2.50
2023-01-07T16:44:58.661Z,3.17
2023-01-07T16:50:16.034Z,5.53
2023-01-07T16:55:55.461Z,2.33
2023-01-07T17:00:59.817Z,5.70
2023-01-07T17:06:07.221Z,2.30
2023-01-07T17:11:28.307Z,2.50
2023-01-07T17:16:32.097Z,2.47
2023-01-07T17:21:39.341Z,2.27
2023-01-07T17:26:42.117Z,2.40
2023-01-07T17:31:44.180Z,3.23
2023-01-07T17:36:47.601Z,2.47
2023-01-07T17:42:08.073Z,2.27
2023-01-07T17:47:22.089Z,2.73
2023-01-07T17:52:24.273Z,4.67
2023-01-07T17:57:26.036Z,2.03
2023-01-07T18:02:30.165Z,3.00
2023-01-07T18:07:32.042Z,2.67
2023-01-07T18:12:34.941Z,2.50
2023-01-07T18:17:36.855Z,2.13
2023-01-07T18:22:38.986Z,2.70
2023-01-07T18:27:40.903Z,2.67
2023-01-07T18:32:43.205Z,4.27
2023-01-07T18:37:48.135Z,2.37
2023-01-07T18:42:49.925Z,1.60
2023-01-07T18:47:51.863Z,2.73
2023-01-07T18:52:53.988Z,1.73
2023-01-07T18:57:55.755Z,2.70
2023-01-07T19:02:58.737Z,2.07
2023-01-07T19:08:00.680Z,2.87
2023-01-07T19:13:02.429Z,2.23
2023-01-07T19:18:05.523Z,2.23
2023-01-07T19:23:07.351Z,3.43
2023-01-07T19:28:09.328Z,2.27
2023-01-07T19:33:11.285Z,2.50
2023-01-07T19:38:13.597Z,2.30
2023-01-07T19:43:15.568Z,1.60
2023-01-07T19:48:17.351Z,1.87
2023-01-07T19:53:19.293Z,4.20
2023-01-07T19:58:21.708Z,5.50
2023-01-07T20:03:23.766Z,3.13
2023-01-07T20:08:25.539Z,2.20
2023-01-07T20:13:28.971Z,4.17
2023-01-07T20:18:31.582Z,2.03
2023-01-07T20:23:38.301Z,2.77
2023-01-07T20:28:40.673Z,2.27
2023-01-07T20:33:43.443Z,4.03
2023-01-07T20:38:46.257Z,4.30
2023-01-07T20:43:54.890Z,2.37
2023-01-07T20:48:57.549Z,3.37
2023-01-07T20:54:00.123Z,2.97
2023-01-07T20:59:02.461Z,6.10
2023-01-07T21:04:04.574Z,4.20
2023-01-07T21:09:06.735Z,2.40
2023-01-07T21:14:09.134Z,2.63
2023-01-07T21:19:10.943Z,2.13
2023-01-07T21:24:16.900Z,3.20
2023-01-07T21:29:19.084Z,3.27
2023-01-07T21:34:21.244Z,3.37
2023-01-07T21:39:23.152Z,2.80
2023-01-07T21:44:24.976Z,4.27
2023-01-07T21:49:27.333Z,4.33
2023-01-07T21:54:29.573Z,3.13
2023-01-07T21:59:31.506Z,5.20
2023-01-07T22:04:34.867Z,3.47
2023-01-07T22:09:37.331Z,3.33
2023-01-07T22:14:39.415Z,4.23
2023-01-07T22:19:41.314Z,4.37
2023-01-07T22:24:43.093Z,4.80
2023-01-07T22:29:45.146Z,2.37
2023-01-07T22:34:47.325Z,3.53
2023-01-07T22:39:56.066Z,4.20
2023-01-07T22:45:06.030Z,3.13
2023-01-07T22:50:09.106Z,2.03
2023-01-07T22:55:12.121Z,5.13
2023-01-07T23:00:36.342Z,2.27
2023-01-07T23:05:39.741Z,6.17
2023-01-07T23:10:45.039Z,4.63
2023-01-07T23:15:47.021Z,4.50
2023-01-07T23:20:49.145Z,3.63
2023-01-07T23:25:51.609Z,3.97
2023-01-07T23:30:53.389Z,3.37
2023-01-07T23:36:06.821Z,5.00
2023-01-07T23:41:10.856Z,5.07
2023-01-07T23:46:12.788Z,4.30
2023-01-07T23:51:17.920Z,4.97
2023-01-07T23:56:21.313Z,3.57
